createdAt,value
2023-01-20T00:02:15.972Z,26.90
2023-01-20T00:04:42.664Z,24.60
2023-01-20T00:07:09.232Z,25.30
2023-01-20T00:09:36.009Z,23.60
2023-01-20T00:12:02.833Z,24.90
2023-01-20T00:14:29.418Z,22.60
2023-01-20T00:16:56.858Z,21.60
2023-01-20T00:19:23.558Z,21.30
2023-01-20T00:21:50.218Z,20.30
2023-01-20T00:24:16.931Z,22.10
2023-01-20T00:26:43.528Z,22.80
2023-01-20T00:29:10.217Z,27.10
2023-01-20T00:31:37.021Z,24.20
2023-01-20T00:34:04.717Z,29.40
2023-01-20T00:36:32.652Z,35.60
2023-01-20T00:39:02.099Z,36.50
2023-01-20T00:41:29.063Z,33.20
2023-01-20T00:43:55.657Z,34.90
2023-01-20T00:46:24.955Z,28.30
2023-01-20T00:48:51.707Z,28.00
2023-01-20T00:51:18.450Z,35.80
2023-01-20T00:53:45.076Z,39.20
2023-01-20T00:56:11.817Z,40.10
2023-01-20T00:58:38.617Z,45.20
2023-01-20T01:01:05.303Z,42.20
2023-01-20T01:03:31.921Z,41.10
2023-01-20T01:06:14.239Z,40.50
2023-01-20T01:08:42.305Z,40.70
2023-01-20T01:11:10.186Z,40.30
2023-01-20T01:13:38.008Z,39.60
2023-01-20T01:16:09.815Z,39.10
2023-01-20T01:18:36.416Z,38.70
2023-01-20T01:21:12.509Z,41.30
2023-01-20T01:23:39.192Z,37.90
2023-01-20T01:26:05.795Z,37.50
2023-01-20T01:28:32.413Z,37.70
2023-01-20T01:31:01.169Z,37.10
2023-01-20T01:33:28.655Z,37.50
2023-01-20T01:35:57.022Z,36.90
2023-01-20T01:38:24.764Z,36.60
2023-01-20T01:40:53.184Z,34.30
2023-01-20T01:43:25.814Z,31.70
2023-01-20T01:45:52.905Z,29.20
2023-01-20T01:48:25.820Z,27.20
2023-01-20T01:51:18.380Z,24.50
2023-01-20T01:53:53.301Z,18.60
2023-01-20T01:56:26.815Z,16.80
2023-01-20T02:01:22.593Z,16.10
2023-01-20T02:04:12.016Z,17.90
2023-01-20T02:06:45.845Z,16.10
2023-01-20T02:09:13.684Z,16.00
2023-01-20T02:12:01.952Z,16.20
2023-01-20T02:14:36.848Z,15.70
2023-01-20T02:17:17.060Z,15.40
2023-01-20T02:20:12.122Z,15.60
2023-01-20T02:23:00.910Z,15.90
2023-01-20T02:25:33.260Z,15.10
2023-01-20T02:28:02.858Z,16.00
2023-01-20T02:30:47.867Z,14.70
2023-01-20T02:33:29.700Z,14.80
2023-01-20T02:36:04.820Z,14.80
2023-01-20T02:39:26.950Z,14.30
2023-01-20T02:42:10.927Z,13.20
2023-01-20T02:44:51.481Z,14.20
2023-01-20T02:47:26.057Z,14.70
2023-01-20T02:49:54.747Z,15.80
2023-01-20T02:52:25.687Z,15.50
2023-01-20T02:54:56.682Z,14.70
2023-01-20T02:57:31.424Z,15.30
2023-01-20T03:00:03.993Z,14.50
2023-01-20T03:02:34.521Z,14.10
2023-01-20T03:05:06.891Z,14.90
2023-01-20T03:07:38.105Z,14.90
2023-01-20T03:10:09.322Z,15.50
2023-01-20T03:12:44.991Z,15.20
2023-01-20T03:15:12.866Z,15.20
2023-01-20T03:17:39.995Z,16.70
2023-01-20T03:20:07.788Z,16.60
2023-01-20T03:22:34.448Z,20.50
2023-01-20T03:25:02.611Z,31.00
2023-01-20T03:27:29.249Z,32.20
2023-01-20T03:29:55.906Z,24.70
2023-01-20T03:32:26.157Z,20.10
2023-01-20T03:34:57.207Z,17.50
2023-01-20T03:37:23.892Z,17.10
2023-01-20T03:39:51.436Z,17.00
2023-01-20T03:42:17.972Z,18.30
2023-01-20T03:45:09.416Z,18.00
2023-01-20T03:47:58.604Z,17.30
2023-01-20T03:50:44.134Z,18.40
2023-01-20T03:53:36.742Z,18.30
2023-01-20T03:56:06.235Z,18.30
2023-01-20T03:58:36.995Z,18.60
2023-01-20T04:01:15.594Z,21.60
2023-01-20T04:03:48.230Z,21.40
2023-01-20T04:06:17.361Z,22.30
2023-01-20T04:08:49.622Z,22.10
2023-01-20T04:11:16.582Z,21.20
2023-01-20T04:13:43.220Z,22.70
2023-01-20T04:16:15.145Z,22.30
2023-01-20T04:18:45.181Z,22.50
2023-01-20T04:21:22.063Z,22.30
2023-01-20T04:23:59.987Z,21.70
2023-01-20T04:26:26.524Z,22.60
2023-01-20T04:28:53.107Z,21.50
2023-01-20T04:31:30.174Z,22.20
2023-01-20T04:33:57.818Z,22.90
2023-01-20T04:36:24.358Z,22.00
2023-01-20T04:38:50.930Z,23.80
2023-01-20T04:41:17.549Z,24.00
2023-01-20T04:43:45.320Z,23.20
2023-01-20T04:46:13.778Z,23.80
2023-01-20T04:48:40.480Z,23.20
2023-01-20T04:51:07.736Z,25.30
2023-01-20T04:53:34.894Z,21.00
2023-01-20T04:56:01.398Z,22.90
2023-01-20T04:58:27.929Z,22.60
2023-01-20T05:00:54.446Z,22.30
2023-01-20T05:03:20.956Z,21.80
2023-01-20T05:05:54.421Z,24.20
2023-01-20T05:08:21.659Z,34.60
2023-01-20T05:10:48.529Z,31.70
2023-01-20T05:13:15.303Z,30.80
2023-01-20T05:15:43.365Z,27.70
2023-01-20T05:18:09.997Z,27.00
2023-01-20T05:20:36.553Z,27.90
2023-01-20T05:23:03.168Z,26.40
2023-01-20T05:25:29.820Z,31.00
2023-01-20T05:27:58.533Z,44.50
2023-01-20T05:30:25.121Z,37.90
2023-01-20T05:32:51.767Z,40.40
2023-01-20T05:35:18.549Z,38.20
2023-01-20T05:37:45.143Z,44.00
2023-01-20T05:40:12.261Z,38.60
2023-01-20T05:42:39.401Z,37.60
2023-01-20T05:45:06.648Z,39.50
2023-01-20T05:47:33.220Z,31.80
2023-01-20T05:49:59.821Z,38.90
2023-01-20T05:52:26.456Z,43.60
2023-01-20T05:54:53.003Z,35.20
2023-01-20T05:57:19.613Z,31.30
2023-01-20T05:59:50.781Z,31.00
2023-01-20T06:02:20.566Z,32.80
2023-01-20T06:04:48.021Z,32.70
2023-01-20T06:07:14.757Z,32.50
2023-01-20T06:09:41.341Z,31.20
2023-01-20T06:12:07.962Z,30.60
2023-01-20T06:14:34.593Z,33.60
2023-01-20T06:17:01.244Z,37.50
2023-01-20T06:19:27.819Z,31.60
2023-01-20T06:21:54.471Z,27.90
2023-01-20T06:24:20.983Z,26.30
2023-01-20T06:26:50.660Z,25.50
2023-01-20T06:29:17.251Z,26.80
2023-01-20T06:31:44.820Z,25.60
2023-01-20T06:34:11.918Z,30.70
2023-01-20T06:36:39.132Z,28.90
2023-01-20T06:39:05.914Z,27.50
2023-01-20T06:41:32.868Z,30.60
2023-01-20T06:43:59.508Z,28.10
2023-01-20T06:46:26.052Z,25.80
2023-01-20T06:48:59.464Z,27.00
2023-01-20T06:51:28.131Z,27.00
2023-01-20T06:53:55.506Z,29.80
2023-01-20T06:56:22.494Z,27.00
2023-01-20T06:58:49.090Z,28.50
2023-01-20T07:01:23.106Z,31.10
2023-01-20T07:03:50.017Z,47.80
2023-01-20T07:06:24.241Z,47.10
2023-01-20T07:08:50.950Z,58.10
2023-01-20T07:11:17.768Z,62.80
2023-01-20T07:13:44.712Z,79.60
2023-01-20T07:16:14.432Z,66.80
2023-01-20T07:18:43.294Z,62.50
2023-01-20T07:21:11.035Z,71.10
2023-01-20T07:23:37.638Z,78.00
2023-01-20T07:26:10.108Z,80.70
2023-01-20T07:28:37.134Z,80.70
2023-01-20T07:31:09.414Z,81.80
2023-01-20T07:33:36.365Z,84.50
2023-01-20T07:36:03.918Z,78.90
2023-01-20T07:38:30.652Z,67.80
2023-01-20T07:40:58.889Z,57.10
2023-01-20T07:43:26.362Z,55.10
2023-01-20T07:45:58.055Z,53.00
2023-01-20T07:48:25.507Z,52.10
2023-01-20T07:51:01.364Z,50.60
2023-01-20T07:53:29.165Z,54.30
2023-01-20T07:55:55.974Z,58.60
2023-01-20T07:58:22.637Z,54.20
2023-01-20T08:00:49.237Z,53.10
2023-01-20T08:03:15.844Z,54.70
2023-01-20T08:05:42.433Z,57.40
2023-01-20T08:08:08.920Z,51.40
2023-01-20T08:10:36.582Z,42.90
2023-01-20T08:13:03.243Z,37.40
2023-01-20T08:15:29.774Z,40.50
2023-01-20T08:17:57.865Z,43.00
2023-01-20T08:20:24.803Z,39.00
2023-01-20T08:22:51.465Z,38.10
2023-01-20T08:25:18.008Z,35.60
2023-01-20T08:27:47.445Z,36.10
2023-01-20T08:30:14.265Z,39.50
2023-01-20T08:32:40.952Z,40.90
2023-01-20T08:35:07.850Z,31.70
2023-01-20T08:37:36.450Z,30.60
2023-01-20T08:40:08.408Z,29.10
2023-01-20T08:42:36.720Z,29.50
2023-01-20T08:45:05.952Z,31.30
2023-01-20T08:47:45.294Z,31.60
2023-01-20T08:50:13.788Z,29.40
2023-01-20T08:52:41.722Z,29.50
2023-01-20T08:55:09.864Z,31.20
2023-01-20T08:57:36.857Z,33.10
2023-01-20T09:00:05.710Z,31.90
2023-01-20T09:02:32.287Z,30.20
2023-01-20T09:04:59.181Z,28.60
2023-01-20T09:07:26.439Z,25.00
2023-01-20T09:09:52.987Z,27.20
2023-01-20T09:12:20.242Z,28.30
2023-01-20T09:14:46.845Z,30.70
2023-01-20T09:17:14.339Z,31.00
2023-01-20T09:19:40.960Z,30.80
2023-01-20T09:22:07.626Z,28.70
2023-01-20T09:24:34.123Z,29.40
2023-01-20T09:27:00.647Z,31.30
2023-01-20T09:29:27.425Z,33.30
2023-01-20T09:31:58.789Z,36.00
2023-01-20T09:34:28.751Z,29.30
2023-01-20T09:37:18.337Z,27.80
2023-01-20T09:40:04.581Z,14.40
2023-01-20T09:43:21.377Z,13.50
2023-01-20T09:45:57.216Z,15.50
2023-01-20T09:48:56.098Z,12.50
2023-01-20T09:52:20.757Z,11.50
2023-01-20T09:54:53.158Z,8.90
2023-01-20T09:57:24.183Z,6.70
2023-01-20T09:59:59.366Z,7.40
2023-01-20T10:02:31.592Z,11.70
2023-01-20T10:05:06.934Z,12.90
2023-01-20T10:07:45.525Z,8.00
2023-01-20T10:10:24.030Z,8.60
2023-01-20T10:13:04.305Z,9.70
2023-01-20T10:15:44.473Z,8.70
2023-01-20T10:18:29.498Z,8.40
2023-01-20T10:21:07.714Z,9.50
2023-01-20T10:24:02.941Z,9.70
2023-01-20T10:26:38.023Z,9.40
2023-01-20T10:29:09.452Z,10.20
2023-01-20T10:31:58.006Z,8.90
2023-01-20T10:34:53.112Z,10.20
2023-01-20T10:37:22.410Z,10.20
2023-01-20T10:40:06.655Z,9.10
2023-01-20T10:42:33.659Z,8.90
2023-01-20T10:45:00.447Z,9.40
2023-01-20T10:47:42.220Z,9.40
2023-01-20T10:50:27.697Z,10.70
2023-01-20T10:53:13.556Z,11.40
2023-01-20T10:55:52.829Z,9.80
2023-01-20T10:58:25.481Z,10.70
2023-01-20T11:00:52.170Z,12.90
2023-01-20T11:03:21.859Z,11.30
2023-01-20T11:05:51.040Z,10.30
2023-01-20T11:08:23.476Z,9.80
2023-01-20T11:11:12.513Z,12.50
2023-01-20T11:13:39.098Z,10.50
2023-01-20T11:16:19.919Z,11.30
2023-01-20T11:19:05.349Z,11.70
2023-01-20T11:21:36.018Z,13.60
2023-01-20T11:24:25.317Z,11.80
2023-01-20T11:26:52.009Z,12.70
2023-01-20T11:29:18.500Z,13.00
2023-01-20T11:31:47.376Z,13.40
2023-01-20T11:34:21.799Z,12.70
2023-01-20T11:36:50.384Z,10.60
2023-01-20T11:39:30.136Z,8.50
2023-01-20T11:42:16.869Z,10.40
2023-01-20T11:44:43.354Z,11.20
2023-01-20T11:47:36.860Z,12.30
2023-01-20T11:50:03.347Z,12.40
2023-01-20T11:52:46.388Z,11.70
2023-01-20T11:55:25.430Z,10.00
2023-01-20T11:58:03.038Z,11.40
2023-01-20T12:00:42.694Z,12.80
2023-01-20T12:03:12.415Z,11.90
2023-01-20T12:05:44.003Z,11.60
2023-01-20T12:08:17.948Z,10.40
2023-01-20T12:10:45.565Z,10.40
2023-01-20T12:13:28.479Z,10.20
2023-01-20T12:16:00.670Z,11.50
2023-01-20T12:19:01.700Z,11.70
2023-01-20T12:21:36.679Z,10.40
2023-01-20T12:24:06.172Z,10.60
2023-01-20T12:26:34.863Z,11.60
2023-01-20T12:29:13.323Z,11.50
2023-01-20T12:31:40.083Z,12.60
2023-01-20T12:34:27.970Z,12.90
2023-01-20T12:37:13.024Z,13.60
2023-01-20T12:40:07.785Z,15.40
2023-01-20T12:43:02.627Z,14.70
2023-01-20T12:45:52.579Z,14.30
2023-01-20T12:48:53.632Z,13.60
2023-01-20T12:51:26.333Z,14.40
2023-01-20T12:54:13.550Z,15.60
2023-01-20T12:56:58.831Z,14.40
2023-01-20T13:00:00.633Z,14.30
2023-01-20T13:03:21.505Z,16.60
2023-01-20T13:06:29.420Z,16.20
2023-01-20T13:09:33.968Z,16.70
2023-01-20T13:14:42.529Z,17.30
2023-01-20T13:17:23.591Z,19.70
2023-01-20T13:19:54.117Z,20.10
2023-01-20T13:22:23.126Z,20.20
2023-01-20T13:24:52.197Z,21.70
2023-01-20T13:27:28.553Z,21.40
2023-01-20T13:29:57.904Z,21.60
2023-01-20T13:32:36.992Z,22.20
2023-01-20T13:35:26.876Z,24.50
2023-01-20T13:37:59.288Z,28.30
2023-01-20T13:40:37.895Z,28.00
2023-01-20T13:43:19.735Z,27.80
2023-01-20T13:45:46.327Z,27.90
2023-01-20T13:48:12.945Z,27.70
2023-01-20T13:50:41.890Z,27.70
2023-01-20T13:53:14.386Z,27.50
2023-01-20T13:55:41.079Z,25.20
2023-01-20T13:58:18.703Z,29.60
2023-01-20T14:00:49.020Z,30.30
2023-01-20T14:03:18.560Z,26.20
2023-01-20T14:06:03.626Z,29.80
2023-01-20T14:08:37.692Z,26.70
2023-01-20T14:11:16.911Z,28.40
2023-01-20T14:14:04.873Z,27.10
2023-01-20T14:16:34.627Z,30.40
2023-01-20T14:19:17.907Z,33.20
2023-01-20T14:21:44.574Z,34.90
2023-01-20T14:24:47.936Z,33.60
2023-01-20T14:27:23.216Z,31.40
2023-01-20T14:29:52.165Z,31.50
2023-01-20T14:32:25.620Z,33.00
2023-01-20T14:37:37.270Z,32.50
2023-01-20T14:40:39.720Z,40.00
2023-01-20T14:43:21.839Z,43.40
2023-01-20T14:45:53.574Z,43.60
2023-01-20T14:48:33.430Z,39.70
2023-01-20T14:51:03.421Z,41.20
2023-01-20T14:53:30.053Z,35.30
2023-01-20T14:56:02.007Z,34.00
2023-01-20T14:58:31.960Z,31.70
2023-01-20T15:01:04.768Z,31.90
2023-01-20T15:03:32.155Z,34.20
2023-01-20T15:06:01.081Z,34.80
2023-01-20T15:08:33.816Z,34.50
2023-01-20T15:11:15.899Z,34.60
2023-01-20T15:14:07.609Z,38.50
2023-01-20T15:16:45.848Z,38.60
2023-01-20T15:19:19.407Z,40.70
2023-01-20T15:24:30.242Z,36.50
2023-01-20T15:27:00.007Z,32.50
2023-01-20T15:30:08.081Z,34.00
2023-01-20T15:32:34.650Z,34.80
2023-01-20T15:35:01.193Z,32.60
2023-01-20T15:37:27.921Z,35.10
2023-01-20T15:39:54.540Z,35.60
2023-01-20T15:42:23.197Z,37.00
2023-01-20T15:44:49.831Z,37.20
2023-01-20T15:47:30.146Z,37.20
2023-01-20T15:49:57.546Z,38.10
2023-01-20T15:52:24.190Z,45.50
2023-01-20T15:54:50.797Z,57.40
2023-01-20T15:57:18.216Z,46.70
2023-01-20T15:59:45.469Z,47.60
2023-01-20T16:02:20.708Z,45.00
2023-01-20T16:04:47.919Z,45.40
2023-01-20T16:07:17.294Z,45.60
2023-01-20T16:09:44.191Z,42.40
2023-01-20T16:12:16.453Z,41.00
2023-01-20T16:14:43.944Z,38.10
2023-01-20T16:17:13.749Z,40.10
2023-01-20T16:19:40.755Z,43.40
2023-01-20T16:22:08.139Z,41.00
2023-01-20T16:24:34.693Z,42.20
2023-01-20T16:27:03.771Z,42.00
2023-01-20T16:29:31.221Z,40.40
2023-01-20T16:31:57.998Z,44.50
2023-01-20T16:34:24.601Z,42.30
2023-01-20T16:36:51.152Z,43.10
2023-01-20T16:39:17.967Z,45.10
2023-01-20T16:41:48.226Z,43.10
2023-01-20T16:44:15.566Z,43.80
2023-01-20T16:46:46.436Z,44.30
2023-01-20T16:49:13.645Z,45.00
2023-01-20T16:51:40.648Z,46.20
2023-01-20T16:54:09.009Z,43.80
2023-01-20T16:56:35.809Z,43.20
2023-01-20T16:59:02.823Z,42.40
2023-01-20T17:01:29.953Z,42.30
2023-01-20T17:03:59.348Z,41.60
2023-01-20T17:06:28.999Z,41.20
2023-01-20T17:08:58.223Z,41.70
2023-01-20T17:11:28.092Z,42.20
2023-01-20T17:13:55.223Z,39.90
2023-01-20T17:16:25.313Z,35.50
2023-01-20T17:18:54.563Z,40.10
2023-01-20T17:21:22.500Z,38.40
2023-01-20T17:24:00.558Z,37.10
2023-01-20T17:26:27.267Z,39.90
2023-01-20T17:28:58.452Z,39.10
2023-01-20T17:31:25.292Z,37.40
2023-01-20T17:33:51.994Z,37.50
2023-01-20T17:36:19.669Z,38.20
2023-01-20T17:38:46.524Z,37.50
2023-01-20T17:41:14.058Z,40.20
2023-01-20T17:43:45.812Z,41.40
2023-01-20T17:46:21.726Z,39.80
2023-01-20T17:48:49.027Z,40.00
2023-01-20T17:51:21.640Z,57.00
2023-01-20T17:53:48.872Z,46.80
2023-01-20T17:56:16.895Z,48.20
2023-01-20T17:58:44.826Z,50.60
2023-01-20T18:01:20.572Z,44.40
2023-01-20T18:03:49.760Z,38.70
2023-01-20T18:06:18.656Z,42.70
2023-01-20T18:08:51.183Z,42.20
2023-01-20T18:11:19.626Z,43.10
2023-01-20T18:13:47.204Z,43.50
2023-01-20T18:16:16.608Z,43.70
2023-01-20T18:18:44.814Z,43.80
2023-01-20T18:21:18.308Z,46.10
2023-01-20T18:23:46.255Z,46.00
2023-01-20T18:26:15.680Z,45.60
2023-01-20T18:28:42.907Z,46.60
2023-01-20T18:31:13.142Z,44.60
2023-01-20T18:33:44.265Z,46.20
2023-01-20T18:36:14.852Z,49.30
2023-01-20T18:38:45.101Z,45.90
2023-01-20T18:41:13.601Z,47.70
2023-01-20T18:43:40.755Z,47.80
2023-01-20T18:46:09.040Z,52.60
2023-01-20T18:48:46.612Z,48.50
2023-01-20T18:51:15.806Z,48.10
2023-01-20T18:53:44.499Z,49.30
2023-01-20T18:56:14.064Z,52.00
2023-01-20T18:58:46.293Z,50.30
2023-01-20T19:01:18.871Z,50.10
2023-01-20T19:03:46.943Z,52.10
2023-01-20T19:06:22.484Z,50.60
2023-01-20T19:08:50.194Z,51.80
2023-01-20T19:11:20.144Z,50.80
2023-01-20T19:13:49.272Z,51.10
2023-01-20T19:16:22.175Z,49.20
2023-01-20T19:18:54.266Z,52.50
2023-01-20T19:21:21.845Z,55.60
2023-01-20T19:23:53.931Z,53.70
2023-01-20T19:26:21.940Z,54.90
2023-01-20T19:28:55.765Z,55.20
2023-01-20T19:31:22.527Z,56.50
2023-01-20T19:33:49.404Z,57.00
2023-01-20T19:36:17.714Z,54.90
2023-01-20T19:38:44.520Z,53.50
2023-01-20T19:41:17.213Z,54.30
2023-01-20T19:43:44.823Z,55.00
2023-01-20T19:46:14.345Z,52.90
2023-01-20T19:48:41.681Z,56.60
2023-01-20T19:51:11.000Z,52.00
2023-01-20T19:53:38.574Z,53.40
2023-01-20T19:56:06.922Z,54.60
2023-01-20T19:58:33.898Z,54.30
2023-01-20T20:01:13.756Z,52.60
2023-01-20T20:03:40.848Z,52.10
2023-01-20T20:06:22.502Z,53.80
2023-01-20T20:08:49.720Z,49.70
2023-01-20T20:11:16.746Z,46.00
2023-01-20T20:13:43.665Z,48.40
2023-01-20T20:16:10.426Z,47.80
2023-01-20T20:18:37.129Z,45.60
2023-01-20T20:21:05.222Z,50.40
2023-01-20T20:23:31.860Z,48.80
2023-01-20T20:25:58.491Z,45.60
2023-01-20T20:28:26.947Z,46.80
2023-01-20T20:30:56.471Z,39.80
2023-01-20T20:33:23.838Z,44.00
2023-01-20T20:35:50.622Z,42.30
2023-01-20T20:38:17.277Z,42.20
2023-01-20T20:40:44.078Z,42.70
2023-01-20T20:43:10.585Z,40.30
2023-01-20T20:45:37.118Z,43.30
2023-01-20T20:48:04.276Z,39.90
2023-01-20T20:50:31.170Z,39.90
2023-01-20T20:52:58.455Z,40.80
2023-01-20T20:55:25.547Z,42.10
2023-01-20T20:57:52.128Z,40.90
2023-01-20T21:00:22.713Z,40.80
2023-01-20T21:02:49.514Z,40.00
2023-01-20T21:05:18.185Z,41.10
2023-01-20T21:07:44.827Z,40.90
2023-01-20T21:10:13.250Z,41.90
2023-01-20T21:12:40.347Z,38.10
2023-01-20T21:15:08.098Z,41.60
2023-01-20T21:17:34.784Z,41.30
2023-01-20T21:20:01.486Z,41.70
2023-01-20T21:22:28.084Z,38.80
2023-01-20T21:24:54.674Z,41.40
2023-01-20T21:27:21.253Z,40.60
2023-01-20T21:29:47.790Z,37.20
2023-01-20T21:32:15.159Z,40.90
2023-01-20T21:34:41.734Z,39.60
2023-01-20T21:37:08.375Z,42.80
2023-01-20T21:39:34.935Z,42.60
2023-01-20T21:42:01.503Z,38.90
2023-01-20T21:44:28.041Z,42.40
2023-01-20T21:47:00.525Z,42.40
2023-01-20T21:49:45.979Z,37.30
2023-01-20T21:52:34.023Z,40.90
2023-01-20T21:55:01.385Z,39.00
2023-01-20T21:57:28.603Z,43.30
2023-01-20T21:59:55.744Z,42.40
2023-01-20T22:02:22.628Z,40.60
2023-01-20T22:04:50.280Z,43.10
2023-01-20T22:07:17.190Z,42.50
2023-01-20T22:09:43.760Z,44.00
2023-01-20T22:12:11.110Z,40.80
2023-01-20T22:14:38.643Z,43.70
2023-01-20T22:17:06.812Z,43.60
2023-01-20T22:19:33.617Z,43.20
2023-01-20T22:22:01.001Z,42.20
2023-01-20T22:24:28.536Z,43.20
2023-01-20T22:26:55.790Z,44.60
2023-01-20T22:29:22.629Z,41.60
2023-01-20T22:31:54.976Z,43.40
2023-01-20T22:34:21.958Z,44.90
2023-01-20T22:36:48.692Z,44.60
2023-01-20T22:39:15.391Z,43.70
2023-01-20T22:41:42.303Z,45.00
2023-01-20T22:44:09.020Z,47.50
2023-01-20T22:46:35.570Z,44.60
2023-01-20T22:49:02.529Z,42.90
2023-01-20T22:51:30.061Z,43.90
2023-01-20T22:53:58.947Z,43.30
2023-01-20T22:56:31.028Z,41.50
2023-01-20T22:58:58.847Z,43.40
2023-01-20T23:01:29.577Z,43.80
2023-01-20T23:03:58.843Z,44.60
2023-01-20T23:06:27.280Z,44.90
2023-01-20T23:08:53.860Z,44.80
2023-01-20T23:11:22.316Z,45.20
2023-01-20T23:13:49.380Z,51.20
2023-01-20T23:16:21.447Z,47.10
2023-01-20T23:18:49.823Z,50.60
2023-01-20T23:21:16.567Z,50.60
2023-01-20T23:23:43.284Z,52.10
2023-01-20T23:26:14.583Z,50.20
2023-01-20T23:28:42.989Z,51.90
2023-01-20T23:31:11.642Z,47.20
2023-01-20T23:33:40.099Z,46.30
2023-01-20T23:36:13.913Z,45.10
2023-01-20T23:38:41.260Z,46.70
2023-01-20T23:41:08.132Z,44.90
2023-01-20T23:43:34.822Z,46.10
2023-01-20T23:46:04.168Z,46.90
2023-01-20T23:48:31.493Z,48.50
2023-01-20T23:50:59.322Z,43.60
2023-01-20T23:53:27.912Z,43.80
2023-01-20T23:56:15.960Z,49.60
2023-01-20T23:58:43.508Z,48.50
